| time (UTC) | temp C | wind direction | speed KPH | gust KPH | rain 1hr cm | rain 24hr cm | rain mn cm | humidity % | barometer mb |
| 20260510150006 | 26 | 173 | 0.0 | 4.8 | 0.00 | 1.02 | 0.00 | 27 | 1015.7 |
| 20260510144501 | 25 | 181 | 0.0 | 3.2 | 0.00 | 1.02 | 0.00 | 12 | 1015.8 |
| 20260510143057 | 24 | 190 | 0.0 | 3.2 | 0.00 | 1.02 | 0.00 | 1 | 1015.7 |
| 20260510141552 | 23 | 62 | 0.0 | 0.0 | 0.00 | 1.02 | 0.00 | 1 | 1015.6 |
| 20260510140048 | 22 | 53 | 0.0 | 1.6 | 0.00 | 1.02 | 0.00 | 1 | 1015.5 |
| 20260510134551 | 22 | 66 | 0.0 | 1.6 | 0.00 | 1.02 | 0.00 | 1 | 1015.5 |
| 20260510133038 | 22 | 165 | 0.0 | 1.6 | 0.00 | 1.02 | 0.00 | 1 | 1015.5 |
| 20260510131534 | 22 | 135 | 0.0 | 0.0 | 0.00 | 1.02 | 0.00 | 1 | 1015.2 |
| 20260510130030 | 22 | 306 | 0.0 | 0.0 | 0.00 | 1.02 | 0.00 | 1 | 1015.2 |
| 20260510124525 | 21 | 306 | 0.0 | 0.0 | 0.00 | 1.02 | 0.00 | 1 | 1015.1 |
| 20260510123022 | 21 | 306 | 0.0 | 0.0 | 0.00 | 1.02 | 0.00 | 1 | 1014.9 |
| 20260510121517 | 20 | 148 | 0.0 | 0.0 | 0.00 | 1.02 | 0.00 | 1 | 1014.7 |
| 20260510120012 | -17 | 0.0 | 0.0 | 0.00 | 1.02 | 0.00 | 1014.5 | ||
| 20260510114508 | -17 | 0.0 | 0.0 | 0.00 | 1.02 | 0.00 | 1014.3 | ||
| 20260510113004 | -17 | 0.0 | 0.0 | 0.00 | 1.02 | 0.00 | 1014.1 | ||
| 20260510111559 | -17 | 0.0 | 0.0 | 0.00 | 1.02 | 0.00 | 1013.9 | ||
| 20260510110058 | -17 | 0.0 | 0.0 | 0.00 | 1.02 | 0.00 | 1013.6 | ||
| 20260510104607 | -17 | 0.0 | 0.0 | 0.00 | 1.02 | 0.00 | 1013.4 | ||
| 20260510103052 | -17 | 0.0 | 0.0 | 0.00 | 1.02 | 0.00 | 1013.3 | ||
| 20260510101544 | -17 | 0.0 | 0.0 | 0.00 | 1.02 | 0.00 | 1013.1 | ||
| 20260510100050 | -17 | 0.0 | 0.0 | 0.00 | 1.02 | 0.00 | 1012.9 | ||
| 20260510094543 | -17 | 0.0 | 0.0 | 0.00 | 1.02 | 0.00 | 1012.9 | ||
| 20260510093030 | -17 | 0.0 | 0.0 | 0.00 | 1.02 | 0.00 | 1012.7 | ||
| 20260510091525 | -17 | 0.0 | 0.0 | 0.00 | 1.02 | 0.00 | 1012.7 | ||
| 20260510090027 | -17 | 0.0 | 0.0 | 0.00 | 1.02 | 0.00 | 1012.6 | ||
| 20260510084517 | 20 | 267 | 0.0 | 0.0 | 0.00 | 1.02 | 0.00 | 1 | 1012.4 |
| 20260510083013 | 20 | 267 | 0.0 | 0.0 | 0.00 | 1.02 | 0.00 | 1 | 1012.2 |
| 20260510081508 | 20 | 266 | 0.0 | 0.0 | 0.00 | 1.02 | 0.00 | 1 | 1012.1 |
| 20260510080007 | 20 | 267 | 0.0 | 0.0 | 0.00 | 1.02 | 0.00 | 1 | 1012.0 |
| 20260510074624 | 20 | 266 | 0.0 | 0.0 | 0.00 | 1.02 | 0.00 | 1 | 1012.1 |
| 20260510073055 | 20 | 266 | 0.0 | 0.0 | 0.00 | 1.02 | 0.00 | 1 | 1012.1 |
| 20260510071558 | 20 | 266 | 0.0 | 0.0 | 0.00 | 1.02 | 0.00 | 1 | 1012.1 |
| 20260510070045 | 20 | 266 | 0.0 | 0.0 | 0.00 | 1.02 | 0.00 | 1 | 1012.1 |
| 20260510064559 | 20 | 266 | 0.0 | 0.0 | 0.00 | 1.02 | 0.00 | 1 | 1012.2 |
| 20260510063037 | 20 | 267 | 0.0 | 0.0 | 0.00 | 1.02 | 0.00 | 1 | 1012.2 |
| 20260510061532 | 20 | 267 | 0.0 | 0.0 | 0.00 | 1.02 | 0.00 | 1 | 1012.4 |
| 20260510060033 | 20 | 267 | 0.0 | 0.0 | 0.00 | 1.02 | 0.00 | 1 | 1012.5 |
| 20260510054526 | 20 | 266 | 0.0 | 0.0 | 0.00 | 1.02 | 0.00 | 1 | 1012.6 |
| 20260510053018 | 20 | 290 | 0.0 | 0.0 | 0.00 | 1.02 | 0.00 | 1 | 1012.7 |
| 20260510051517 | 20 | 290 | 0.0 | 0.0 | 0.00 | 1.02 | 0.00 | 1 | 1012.9 |
| 20260510050008 | 20 | 290 | 0.0 | 0.0 | 0.00 | 1.02 | 0.00 | 1 | 1013.3 |
| 20260510044504 | 20 | 290 | 0.0 | 0.0 | 0.00 | 1.02 | 0.00 | 1 | 1013.5 |
| 20260510043106 | 20 | 290 | 0.0 | 0.0 | 0.00 | 1.02 | 0.00 | 1 | 1013.7 |
| 20260510041610 | 20 | 290 | 0.0 | 0.0 | 0.00 | 1.02 | 0.00 | 1 | 1014.0 |
| 20260510040051 | 20 | 290 | 0.0 | 0.0 | 0.00 | 1.02 | 0.00 | 1 | 1014.0 |
| 20260510034547 | 20 | 290 | 0.0 | 0.0 | 0.00 | 1.02 | 1.02 | 1 | 1014.0 |
| 20260510033045 | 20 | 290 | 0.0 | 0.0 | 0.00 | 1.02 | 1.02 | 1 | 1013.9 |
| 20260510031543 | 20 | 290 | 0.0 | 0.0 | 0.00 | 1.02 | 1.02 | 1 | 1014.0 |
| 20260510030048 | 20 | 290 | 0.0 | 0.0 | 0.00 | 1.02 | 1.02 | 1 | 1013.9 |
| 20260510024552 | 20 | 290 | 0.0 | 0.0 | 0.00 | 1.02 | 1.02 | 1 | 1013.8 |
| 20260510023041 | 20 | 290 | 0.0 | 0.0 | 0.00 | 1.02 | 1.02 | 1 | 1013.8 |
| 20260510021541 | 20 | 290 | 0.0 | 0.0 | 0.00 | 1.02 | 1.02 | 1 | 1013.5 |
| 20260510020048 | 20 | 290 | 0.0 | 0.0 | 0.00 | 1.02 | 1.02 | 1 | 1013.3 |
| 20260510014541 | 20 | 290 | 0.0 | 0.0 | 0.00 | 1.02 | 1.02 | 1 | 1012.7 |
| 20260510013046 | 20 | 290 | 0.0 | 0.0 | 0.00 | 1.02 | 1.02 | 1 | 1012.8 |
| 20260510011540 | 20 | 290 | 0.0 | 0.0 | 0.00 | 1.02 | 1.02 | 1 | 1012.4 |
| 20260510010055 | 20 | 290 | 0.0 | 0.0 | 0.00 | 1.02 | 1.02 | 1 | 1012.6 |
| 20260510004532 | 20 | 290 | 0.0 | 0.0 | 0.00 | 1.02 | 1.02 | 1 | 1012.2 |
| 20260510003032 | 20 | 290 | 0.0 | 0.0 | 0.00 | 1.02 | 1.02 | 1 | 1012.0 |
| 20260510001526 | 20 | 290 | 0.0 | 0.0 | 0.03 | 1.02 | 1.02 | 1 | 1012.3 |
| 20260510000020 | 20 | 290 | 0.0 | 0.0 | 0.10 | 1.02 | 1.02 | 1 | 1012.3 |
| 20260509234515 | 20 | 336 | 0.0 | 0.0 | 0.18 | 1.02 | 1.02 | 1 | 1012.1 |
| 20260509233011 | 21 | 337 | 0.0 | 1.6 | 0.25 | 1.02 | 1.02 | 1 | 1011.9 |
| 20260509231508 | 21 | 298 | 0.0 | 0.0 | 0.23 | 0.99 | 0.99 | 1 | 1012.7 |
| 20260509230002 | 21 | 298 | 0.0 | 1.6 | 0.18 | 0.91 | 0.91 | 1 | 1013.0 |
| 20260509224558 | 21 | 180 | 0.0 | 0.0 | 0.13 | 0.84 | 0.84 | 1 | 1012.9 |
| 20260509223054 | 21 | 249 | 0.0 | 0.0 | 0.05 | 0.76 | 0.76 | 1 | 1013.0 |
| 20260509221605 | 21 | 300 | 0.0 | 1.6 | 0.05 | 0.76 | 0.76 | 1 | 1012.7 |
| 20260509220058 | 22 | 223 | 0.0 | 0.0 | 0.03 | 0.71 | 0.71 | 1 | 1012.6 |
| 20260509214543 | 22 | 225 | 0.0 | 1.6 | 0.00 | 0.71 | 0.71 | 1 | 1012.3 |
| 20260509213037 | 22 | 306 | 0.0 | 1.6 | 0.08 | 0.71 | 0.71 | 1 | 1012.0 |
| 20260509211532 | 22 | 279 | 0.0 | 1.6 | 0.33 | 0.71 | 0.71 | 1 | 1012.0 |
| 20260509210028 | 22 | 247 | 0.0 | 1.6 | 0.33 | 0.71 | 0.71 | 1 | 1012.0 |
| 20260509204523 | 22 | 177 | 0.0 | 4.8 | 0.33 | 0.79 | 0.71 | 4 | 1012.2 |
| 20260509203019 | 23 | 177 | 1.6 | 4.8 | 0.25 | 0.71 | 0.64 | 13 | 1011.9 |
| 20260509201515 | 24 | 345 | 0.0 | 4.8 | 0.00 | 0.46 | 0.38 | 4 | 1011.6 |
| 20260509200010 | 24 | 244 | 0.0 | 3.2 | 0.10 | 0.46 | 0.38 | 1 | 1011.6 |
| 20260509194508 | 24 | 187 | 0.0 | 1.6 | 0.36 | 0.66 | 0.38 | 1 | 1011.8 |
| 20260509193002 | 24 | 200 | 0.0 | 3.2 | 0.36 | 0.66 | 0.38 | 1 | 1011.7 |
| 20260509191613 | 24 | 292 | 0.0 | 1.6 | 0.36 | 0.66 | 0.38 | 11 | 1011.8 |
| 20260509190110 | 25 | 313 | 0.0 | 8.0 | 0.25 | 0.56 | 0.28 | 30 | 1012.3 |
| 20260509184548 | 25 | 183 | 0.0 | 9.7 | 0.03 | 0.30 | 0.03 | 51 | 1012.2 |
| 20260509183045 | 25 | 230 | 0.0 | 11.3 | 0.03 | 0.30 | 0.03 | 51 | 1012.0 |
| 20260509181540 | 25 | 176 | 3.2 | 9.7 | 0.03 | 0.30 | 0.03 | 59 | 1012.2 |
| 20260509180035 | 26 | 172 | 1.6 | 8.0 | 0.03 | 0.30 | 0.03 | 67 | 1012.0 |
| 20260509174531 | 27 | 171 | 4.8 | 11.3 | 0.00 | 0.28 | 0.00 | 71 | 1012.0 |
| 20260509173031 | 28 | 306 | 1.6 | 6.4 | 0.00 | 0.28 | 0.00 | 69 | 1012.1 |
| 20260509171525 | 27 | 214 | 1.6 | 9.7 | 0.00 | 0.28 | 0.00 | 70 | 1012.4 |
| 20260509170027 | 27 | 72 | 1.6 | 4.8 | 0.00 | 0.28 | 0.00 | 70 | 1012.4 |
| 20260509164513 | 27 | 182 | 3.2 | 6.4 | 0.00 | 0.28 | 0.00 | 71 | 1012.6 |
| 20260509163010 | 27 | 286 | 1.6 | 6.4 | 0.00 | 0.28 | 0.00 | 71 | 1012.6 |
| 20260509161505 | 26 | 234 | 0.0 | 4.8 | 0.00 | 0.28 | 0.00 | 70 | 1012.7 |
| 20260509160100 | 26 | 265 | 0.0 | 3.2 | 0.00 | 0.28 | 0.00 | 67 | 1012.6 |
| 20260509154557 | 26 | 187 | 0.0 | 3.2 | 0.00 | 0.28 | 0.00 | 61 | 1012.5 |
| 20260509153051 | 25 | 187 | 0.0 | 1.6 | 0.00 | 0.28 | 0.00 | 54 | 1012.3 |
| 20260509151548 | 25 | 178 | 0.0 | 1.6 | 0.00 | 0.28 | 0.00 | 44 | 1012.4 |